UATG/GUW METAR and TAF weather

Enter ICAO airport designator
Station Type Date Time Source
UATG METAR 2019/04/20 22:00 UTC NOAA

UATG 202200Z 35004MPS CAVOK 01/M05 Q1023 R32/CLRD70 NOSIG RMK QFE769/1026


Station Type Date Time Source
UATG Decoded METAR 2019/04/20 22:00 UTC NOAA

Station name not available
Apr 20, 2019 - 06:00 PM EDT / 2019.04.20 2200 UTC
Wind: from the N (350 degrees) at 9 MPH (8 KT):0
Visibility: greater than 7 mile(s):0
Temperature: 33 F (1 C)
Windchill: 24 F (-4 C):1
Dew Point: 23 F (-5 C)
Relative Humidity: 64%
Pressure (altimeter): 30.21 in. Hg (1023 hPa)
ob: UATG 202200Z 35004MPS CAVOK 01/M05 Q1023 R32/CLRD70 NOSIG RMK QFE769/1026
cycle: 22

Station Type Date Time Source
UATG TAF 2019/04/20 18:18 UTC NOAA

TAF UATG 201701Z 2018/2118 VRB03MPS 9999 SCT033 TX16/2112Z TN01/2102Z
BECMG 2020/2022 3100 BR SCT011

Example: see airport list